Time;durP1;ratioP1;P1;durP2;ratioP2;P2;SDS_P1;SDS_P2;PMS_P1;PMS_P2;Temp;Humidity;BMP_temperature;BMP_pressure;BME280_temperature;BME280_humidity;BME280_pressure;Samples;Min_cycle;Max_cycle;Signal;HPM_P1;HPM_P2
2021/03/16 00:01:32;;;;;;;9.40;6.53;;;;;;;;;;4978117;28;20869;-14
2021/03/16 00:04:06;;;;;;;10.87;7.63;;;;;;;;;;4976706;28;20468;-14
2021/03/16 00:06:53;;;;;;;11.03;7.37;;;;;;;;;;4958698;28;20449;-14
2021/03/16 00:09:20;;;;;;;10.53;7.30;;;;;;;;;;4960962;28;20465;-14
2021/03/16 00:11:48;;;;;;;6.97;6.37;;;;;;;;;;4977593;28;20442;-16
2021/03/16 00:14:15;;;;;;;12.13;8.63;;;;;;;;;;4975939;28;20437;-15
2021/03/16 00:16:42;;;;;;;9.60;8.53;;;;;;;;;;4975713;28;20450;-15
2021/03/16 00:19:09;;;;;;;9.10;8.10;;;;;;;;;;4959691;28;20445;-15
2021/03/16 00:21:37;;;;;;;8.30;7.33;;;;;;;;;;4984508;28;20444;-14
2021/03/16 00:24:04;;;;;;;8.33;7.53;;;;;;;;;;4983225;28;20461;-15
2021/03/16 00:26:30;;;;;;;11.17;9.40;;;;;;;;;;4980025;28;20536;-15
2021/03/16 00:28:57;;;;;;;9.73;8.33;;;;;;;;;;4947353;28;20480;-15
2021/03/16 00:31:26;;;;;;;9.17;8.23;;;;;;;;;;4983811;28;20492;-15
2021/03/16 00:33:53;;;;;;;11.00;8.03;;;;;;;;;;4964378;28;20500;-15
2021/03/16 00:36:19;;;;;;;9.80;8.50;;;;;;;;;;4979069;28;20507;-16
2021/03/16 00:38:46;;;;;;;9.90;7.93;;;;;;;;;;4980215;28;20503;-15
2021/03/16 00:41:14;;;;;;;9.97;8.43;;;;;;;;;;4962548;28;20450;-15
2021/03/16 00:43:41;;;;;;;12.90;8.70;;;;;;;;;;4977836;28;20445;-15
2021/03/16 00:46:08;;;;;;;13.37;8.23;;;;;;;;;;4976774;28;20437;-16
2021/03/16 00:48:36;;;;;;;10.47;9.43;;;;;;;;;;4943432;28;20500;-16
2021/03/16 00:51:03;;;;;;;11.47;8.20;;;;;;;;;;4975341;28;20481;-16
2021/03/16 00:53:31;;;;;;;9.23;8.33;;;;;;;;;;4974145;28;20485;-16
2021/03/16 00:56:05;;;;;;;11.33;8.10;;;;;;;;;;4956444;28;20732;-15
2021/03/16 00:58:34;;;;;;;11.10;7.23;;;;;;;;;;4956695;28;20449;-15
2021/03/16 01:01:01;;;;;;;9.37;8.47;;;;;;;;;;4973749;28;20450;-15
2021/03/16 01:03:28;;;;;;;11.33;8.57;;;;;;;;;;4974505;28;20449;-15
2021/03/16 01:05:56;;;;;;;13.07;8.30;;;;;;;;;;4957526;28;20449;-14
2021/03/16 01:08:23;;;;;;;12.23;9.03;;;;;;;;;;4942343;28;20519;-14
2021/03/16 01:10:51;;;;;;;12.43;8.40;;;;;;;;;;4974937;28;20484;-14
2021/03/16 01:13:18;;;;;;;12.50;8.10;;;;;;;;;;4974018;28;20749;-14
2021/03/16 01:15:46;;;;;;;7.67;6.93;;;;;;;;;;4957106;28;20441;-15
2021/03/16 01:18:13;;;;;;;11.33;7.40;;;;;;;;;;4975111;28;20511;-15
2021/03/16 01:20:41;;;;;;;12.27;7.67;;;;;;;;;;4956062;28;20504;-15
2021/03/16 01:23:09;;;;;;;14.10;7.90;;;;;;;;;;4975208;28;20885;-14
2021/03/16 01:25:36;;;;;;;9.00;7.80;;;;;;;;;;4957142;29;20787;-14
2021/03/16 01:28:04;;;;;;;7.87;7.07;;;;;;;;;;4956311;29;20458;-14
2021/03/16 01:30:31;;;;;;;17.33;6.77;;;;;;;;;;4956772;29;20805;-14
2021/03/16 01:32:58;;;;;;;13.20;7.73;;;;;;;;;;4956695;29;20865;-15
2021/03/16 01:35:26;;;;;;;8.67;7.73;;;;;;;;;;4975222;28;20457;-15
2021/03/16 01:37:54;;;;;;;12.27;8.17;;;;;;;;;;4959115;28;20449;-15
2021/03/16 01:40:26;;;;;;;9.90;7.50;;;;;;;;;;4960870;28;20448;-14
2021/03/16 01:42:53;;;;;;;9.17;6.37;;;;;;;;;;4976818;28;20452;-14
2021/03/16 01:45:20;;;;;;;10.43;7.17;;;;;;;;;;4958205;28;20710;-14
2021/03/16 01:47:48;;;;;;;9.60;7.00;;;;;;;;;;4956630;28;20441;-14
2021/03/16 01:50:16;;;;;;;11.13;6.60;;;;;;;;;;4976054;28;20504;-14
2021/03/16 01:52:43;;;;;;;6.73;6.00;;;;;;;;;;4977035;28;20730;-15
2021/03/16 01:55:11;;;;;;;13.77;7.00;;;;;;;;;;4977780;28;20445;-14
2021/03/16 01:57:41;;;;;;;6.90;5.83;;;;;;;;;;4943962;28;20624;-14
2021/03/16 02:00:28;;;;;;;6.57;5.97;;;;;;;;;;4974733;28;20454;-14
2021/03/16 02:03:14;;;;;;;7.33;6.57;;;;;;;;;;4957398;28;20847;-15
2021/03/16 02:06:01;;;;;;;8.67;6.60;;;;;;;;;;4975688;28;20783;-14
2021/03/16 02:08:48;;;;;;;12.67;6.10;;;;;;;;;;4957926;28;20445;-14
2021/03/16 02:11:40;;;;;;;14.23;6.33;;;;;;;;;;4974372;28;20739;-14
2021/03/16 02:14:30;;;;;;;6.27;5.67;;;;;;;;;;4974160;28;20449;-14
2021/03/16 02:17:17;;;;;;;11.87;6.17;;;;;;;;;;4974191;28;20785;-14
2021/03/16 02:20:08;;;;;;;5.63;5.23;;;;;;;;;;4973732;28;20449;-14
2021/03/16 02:22:53;;;;;;;6.50;6.00;;;;;;;;;;4974862;28;20858;-14
2021/03/16 02:25:47;;;;;;;6.00;5.40;;;;;;;;;;4973175;28;20890;-14
2021/03/16 02:28:34;;;;;;;10.80;6.13;;;;;;;;;;4971288;28;20532;-14
2021/03/16 02:31:22;;;;;;;7.00;5.67;;;;;;;;;;4976717;28;20441;-14
2021/03/16 02:34:09;;;;;;;6.70;5.47;;;;;;;;;;4976241;28;20445;-14
2021/03/16 02:36:55;;;;;;;7.57;5.37;;;;;;;;;;4960275;28;20883;-14
2021/03/16 02:39:42;;;;;;;6.57;5.53;;;;;;;;;;4977575;28;20433;-14
2021/03/16 02:42:28;;;;;;;8.57;5.37;;;;;;;;;;4977612;28;20442;-14
2021/03/16 02:45:14;;;;;;;6.57;5.43;;;;;;;;;;4963570;28;20456;-14
2021/03/16 02:48:01;;;;;;;12.67;5.80;;;;;;;;;;4981901;28;20456;-14
2021/03/16 02:50:48;;;;;;;7.60;5.80;;;;;;;;;;4964086;28;20571;-14
2021/03/16 02:53:35;;;;;;;12.27;4.90;;;;;;;;;;4959664;28;20449;-14
2021/03/16 02:56:21;;;;;;;5.90;5.40;;;;;;;;;;4981161;28;20448;-14
2021/03/16 02:59:09;;;;;;;9.77;6.03;;;;;;;;;;4964549;28;20540;-14
2021/03/16 03:01:57;;;;;;;8.70;5.63;;;;;;;;;;4981082;28;20441;-14
2021/03/16 03:04:46;;;;;;;9.47;5.30;;;;;;;;;;4979041;28;20465;-14
2021/03/16 03:07:32;;;;;;;10.43;6.47;;;;;;;;;;4981274;28;20448;-15
2021/03/16 03:10:18;;;;;;;6.67;5.30;;;;;;;;;;4960464;29;20476;-15
2021/03/16 03:13:05;;;;;;;8.83;5.30;;;;;;;;;;4961813;29;20453;-15
2021/03/16 03:15:52;;;;;;;6.80;6.10;;;;;;;;;;4968671;28;20464;-15
2021/03/16 03:18:38;;;;;;;7.07;5.40;;;;;;;;;;4979948;28;20480;-15
2021/03/16 03:21:26;;;;;;;12.73;6.13;;;;;;;;;;4975740;28;20504;-15
2021/03/16 03:24:14;;;;;;;5.90;5.50;;;;;;;;;;4977499;28;21030;-15
2021/03/16 03:27:01;;;;;;;7.87;6.30;;;;;;;;;;4972031;28;20516;-16
2021/03/16 03:29:48;;;;;;;14.93;7.30;;;;;;;;;;4957425;29;20477;-15
2021/03/16 03:32:34;;;;;;;9.73;5.80;;;;;;;;;;4939649;29;20794;-14
2021/03/16 03:35:20;;;;;;;8.87;6.10;;;;;;;;;;4968284;28;20468;-15
2021/03/16 03:38:06;;;;;;;10.17;5.90;;;;;;;;;;4974891;28;20458;-15
2021/03/16 03:40:52;;;;;;;6.60;5.43;;;;;;;;;;4975148;28;20449;-15
2021/03/16 03:43:39;;;;;;;8.63;5.60;;;;;;;;;;4975886;28;20544;-15
2021/03/16 03:46:25;;;;;;;6.63;5.47;;;;;;;;;;4976426;28;20441;-14
2021/03/16 03:49:12;;;;;;;5.73;5.23;;;;;;;;;;4975277;28;20481;-14
2021/03/16 03:51:58;;;;;;;8.50;6.13;;;;;;;;;;4975892;28;20445;-14
2021/03/16 03:54:45;;;;;;;11.63;5.67;;;;;;;;;;4975775;28;20438;-14
2021/03/16 03:57:31;;;;;;;9.33;5.77;;;;;;;;;;4976140;28;20475;-14
2021/03/16 04:00:17;;;;;;;10.20;5.40;;;;;;;;;;4974754;28;20658;-14
2021/03/16 04:03:06;;;;;;;10.13;6.57;;;;;;;;;;4971421;28;20458;-14
2021/03/16 04:05:53;;;;;;;7.13;5.90;;;;;;;;;;4973017;28;20494;-14
2021/03/16 04:08:42;;;;;;;8.50;7.20;;;;;;;;;;4975007;28;20862;-14
2021/03/16 04:11:28;;;;;;;6.43;5.10;;;;;;;;;;4974113;28;20445;-15
2021/03/16 04:14:16;;;;;;;7.73;6.77;;;;;;;;;;4973711;28;21236;-15
2021/03/16 04:17:03;;;;;;;8.57;5.70;;;;;;;;;;4973745;28;20456;-15
2021/03/16 04:19:51;;;;;;;6.20;5.70;;;;;;;;;;4974896;28;20515;-15
2021/03/16 04:22:38;;;;;;;9.43;6.40;;;;;;;;;;4976250;28;20449;-15
2021/03/16 04:25:24;;;;;;;11.33;6.30;;;;;;;;;;4973320;28;20472;-14
2021/03/16 04:28:14;;;;;;;7.30;6.00;;;;;;;;;;4938017;29;20461;-14
2021/03/16 04:31:00;;;;;;;9.13;6.60;;;;;;;;;;4949233;29;20493;-14
2021/03/16 04:33:47;;;;;;;12.13;6.67;;;;;;;;;;4954760;29;20449;-14
2021/03/16 04:36:32;;;;;;;10.00;6.17;;;;;;;;;;4951834;29;20464;-14
2021/03/16 04:39:18;;;;;;;7.50;6.80;;;;;;;;;;4936011;29;20442;-14
2021/03/16 04:42:04;;;;;;;8.20;7.00;;;;;;;;;;4936246;29;20872;-14
2021/03/16 04:44:51;;;;;;;7.67;6.13;;;;;;;;;;4953977;29;20461;-14
2021/03/16 04:47:36;;;;;;;8.83;6.57;;;;;;;;;;4936045;29;20557;-14
2021/03/16 04:50:22;;;;;;;8.33;5.83;;;;;;;;;;4954081;29;20505;-14
2021/03/16 04:53:08;;;;;;;11.57;7.90;;;;;;;;;;4937145;29;20515;-14
2021/03/16 04:55:53;;;;;;;13.33;6.67;;;;;;;;;;4954729;29;20449;-14
2021/03/16 04:58:39;;;;;;;13.00;6.43;;;;;;;;;;4936949;29;20464;-15
2021/03/16 05:01:26;;;;;;;9.50;7.67;;;;;;;;;;4953329;29;20446;-15
2021/03/16 05:04:12;;;;;;;8.37;6.33;;;;;;;;;;4958028;29;20498;-15
2021/03/16 05:06:57;;;;;;;10.30;6.87;;;;;;;;;;4962254;29;20449;-15
2021/03/16 05:09:43;;;;;;;8.57;7.40;;;;;;;;;;4943922;29;20480;-15
2021/03/16 05:12:29;;;;;;;12.20;7.67;;;;;;;;;;4957368;29;20442;-15
2021/03/16 05:15:15;;;;;;;11.70;7.47;;;;;;;;;;4953678;29;20466;-15
2021/03/16 05:18:02;;;;;;;10.00;7.77;;;;;;;;;;4953611;29;20457;-15
2021/03/16 05:20:48;;;;;;;8.50;6.80;;;;;;;;;;4951669;29;20430;-14
2021/03/16 05:23:34;;;;;;;9.40;7.23;;;;;;;;;;4936516;29;21122;-14
2021/03/16 05:26:21;;;;;;;8.30;7.00;;;;;;;;;;4955383;29;21006;-14
2021/03/16 05:29:09;;;;;;;9.13;6.77;;;;;;;;;;4952235;29;20581;-14
2021/03/16 05:31:56;;;;;;;11.20;6.57;;;;;;;;;;4950614;29;20900;-14
2021/03/16 05:34:45;;;;;;;10.67;7.90;;;;;;;;;;4958072;29;20464;-14
2021/03/16 05:37:33;;;;;;;7.20;6.57;;;;;;;;;;4959845;29;20446;-14
2021/03/16 05:40:20;;;;;;;8.60;6.60;;;;;;;;;;4961179;29;20469;-14
2021/03/16 05:43:11;;;;;;;7.70;6.57;;;;;;;;;;4953233;29;20476;-15
2021/03/16 05:46:01;;;;;;;7.33;6.23;;;;;;;;;;4931476;29;20897;-15
2021/03/16 05:48:49;;;;;;;16.37;7.33;;;;;;;;;;4934320;29;20449;-15
2021/03/16 05:51:36;;;;;;;7.27;6.40;;;;;;;;;;4947959;29;21212;-15
2021/03/16 05:54:23;;;;;;;8.00;6.20;;;;;;;;;;4948406;29;20530;-15
2021/03/16 05:57:09;;;;;;;8.40;6.63;;;;;;;;;;4928431;29;20729;-15
2021/03/16 05:59:56;;;;;;;8.47;6.20;;;;;;;;;;4943649;29;20671;-15
2021/03/16 06:02:41;;;;;;;7.00;5.90;;;;;;;;;;4946273;28;20454;-15
2021/03/16 06:05:27;;;;;;;14.27;5.87;;;;;;;;;;4949460;29;20508;-14
2021/03/16 06:08:14;;;;;;;8.83;6.60;;;;;;;;;;4949474;29;21063;-15
2021/03/16 06:11:00;;;;;;;7.73;5.90;;;;;;;;;;4950010;29;20558;-15
2021/03/16 06:13:53;;;;;;;8.50;6.10;;;;;;;;;;4947391;29;20462;-15
2021/03/16 06:16:39;;;;;;;9.47;6.30;;;;;;;;;;4947562;29;20528;-16
2021/03/16 06:19:28;;;;;;;7.67;6.80;;;;;;;;;;4946631;29;20445;-14
2021/03/16 06:22:17;;;;;;;7.23;6.20;;;;;;;;;;4945219;29;20516;-14
2021/03/16 06:25:04;;;;;;;7.63;6.70;;;;;;;;;;4946206;29;20816;-14
2021/03/16 06:27:59;;;;;;;8.37;7.77;;;;;;;;;;4922079;29;20905;-14
2021/03/16 06:30:48;;;;;;;9.37;6.07;;;;;;;;;;4924120;29;20556;-15
2021/03/16 06:33:34;;;;;;;7.43;5.40;;;;;;;;;;4944948;29;21125;-14
2021/03/16 06:36:24;;;;;;;7.37;5.80;;;;;;;;;;4940459;29;20468;-15
2021/03/16 06:39:17;;;;;;;7.37;5.70;;;;;;;;;;4939058;29;20449;-16
2021/03/16 06:42:05;;;;;;;15.87;6.57;;;;;;;;;;4937692;29;20540;-15
2021/03/16 06:44:58;;;;;;;10.10;6.17;;;;;;;;;;4937474;29;20711;-15
2021/03/16 06:47:45;;;;;;;11.20;6.10;;;;;;;;;;4935864;29;20590;-15
2021/03/16 06:50:31;;;;;;;8.57;6.30;;;;;;;;;;4937664;29;20908;-15
2021/03/16 06:53:27;;;;;;;9.93;7.70;;;;;;;;;;4939493;28;20907;-16
2021/03/16 06:56:13;;;;;;;6.43;5.43;;;;;;;;;;4937345;29;20458;-15
2021/03/16 06:58:59;;;;;;;11.40;5.57;;;;;;;;;;4916376;29;20461;-15
2021/03/16 07:02:02;;;;;;;6.03;5.50;;;;;;;;;;4919886;29;20963;-15
2021/03/16 07:05:14;;;;;;;10.07;5.60;;;;;;;;;;4928321;29;20454;-14
2021/03/16 07:08:01;;;;;;;7.23;6.57;;;;;;;;;;4926084;29;20541;-16
2021/03/16 07:10:58;;;;;;;12.70;5.60;;;;;;;;;;4948220;28;20817;-16
2021/03/16 07:13:47;;;;;;;7.37;6.07;;;;;;;;;;4902420;29;20525;-15
2021/03/16 07:16:34;;;;;;;9.80;5.90;;;;;;;;;;4931527;29;20454;-14
2021/03/16 07:19:21;;;;;;;10.10;6.03;;;;;;;;;;4914960;29;20460;-14
2021/03/16 07:22:07;;;;;;;7.80;5.73;;;;;;;;;;4910913;29;20442;-14
2021/03/16 07:24:54;;;;;;;6.77;5.30;;;;;;;;;;4919836;28;20462;-15
2021/03/16 07:27:44;;;;;;;6.73;5.90;;;;;;;;;;4910602;29;20480;-14
2021/03/16 07:30:32;;;;;;;8.10;7.30;;;;;;;;;;4930667;28;20579;-15
2021/03/16 07:33:21;;;;;;;10.77;5.60;;;;;;;;;;4950295;28;20438;-15
2021/03/16 07:36:08;;;;;;;7.47;5.33;;;;;;;;;;4920858;29;20553;-14
2021/03/16 07:38:55;;;;;;;9.87;5.27;;;;;;;;;;4936440;28;20558;-15
2021/03/16 07:41:43;;;;;;;6.20;5.33;;;;;;;;;;4947574;28;21066;-15
2021/03/16 07:44:42;;;;;;;10.37;6.40;;;;;;;;;;4933997;28;20481;-15
2021/03/16 07:47:34;;;;;;;10.37;6.20;;;;;;;;;;4930460;28;20480;-15
2021/03/16 07:50:33;;;;;;;9.23;6.17;;;;;;;;;;4946508;28;20477;-15
2021/03/16 07:53:26;;;;;;;14.53;5.63;;;;;;;;;;4942100;28;20464;-15
2021/03/16 07:56:16;;;;;;;8.83;6.30;;;;;;;;;;4929207;28;20454;-15
2021/03/16 07:59:09;;;;;;;10.13;5.40;;;;;;;;;;4911947;28;20455;-15
2021/03/16 08:01:56;;;;;;;12.50;6.20;;;;;;;;;;4903177;29;20442;-15
2021/03/16 08:04:46;;;;;;;8.07;7.27;;;;;;;;;;4916135;28;20454;-16
2021/03/16 08:07:34;;;;;;;7.40;5.90;;;;;;;;;;4897212;28;20488;-16
2021/03/16 08:10:28;;;;;;;10.00;6.47;;;;;;;;;;4914474;28;20475;-15
2021/03/16 08:13:18;;;;;;;7.40;6.00;;;;;;;;;;4917540;28;20976;-15
2021/03/16 08:16:16;;;;;;;12.43;6.87;;;;;;;;;;4937490;28;20483;-14
2021/03/16 08:19:10;;;;;;;10.50;5.67;;;;;;;;;;4935021;28;20453;-16
2021/03/16 08:21:59;;;;;;;8.13;5.57;;;;;;;;;;4936245;28;20453;-15
2021/03/16 08:24:46;;;;;;;6.23;5.63;;;;;;;;;;4942083;28;20504;-15
2021/03/16 08:27:35;;;;;;;6.77;6.10;;;;;;;;;;4932399;28;20466;-15
2021/03/16 08:30:22;;;;;;;7.57;6.10;;;;;;;;;;4945040;28;20476;-15
2021/03/16 08:33:09;;;;;;;8.40;5.40;;;;;;;;;;4942353;28;20480;-15
2021/03/16 08:35:59;;;;;;;13.10;6.00;;;;;;;;;;4942717;28;20451;-15
2021/03/16 08:38:45;;;;;;;10.40;6.17;;;;;;;;;;4940231;28;21438;-14
2021/03/16 08:41:33;;;;;;;9.50;5.43;;;;;;;;;;4950438;28;20879;-14
2021/03/16 08:44:19;;;;;;;9.93;6.60;;;;;;;;;;4931749;28;20460;-15
2021/03/16 08:47:10;;;;;;;7.70;7.10;;;;;;;;;;4955843;28;20477;-15
2021/03/16 08:49:57;;;;;;;7.20;6.33;;;;;;;;;;4951042;28;20511;-15
2021/03/16 08:52:44;;;;;;;8.07;5.60;;;;;;;;;;4957959;28;20445;-14
2021/03/16 08:55:32;;;;;;;6.60;5.80;;;;;;;;;;4935358;28;20496;-16
2021/03/16 08:58:24;;;;;;;7.07;5.90;;;;;;;;;;4953061;28;20445;-15
2021/03/16 09:01:12;;;;;;;10.67;6.13;;;;;;;;;;4939107;28;21177;-15
2021/03/16 09:04:11;;;;;;;7.17;6.40;;;;;;;;;;4951024;28;20710;-15
2021/03/16 09:06:57;;;;;;;6.00;5.60;;;;;;;;;;4932403;28;21376;-14
2021/03/16 09:09:44;;;;;;;7.60;6.70;;;;;;;;;;4952266;28;20484;-14
2021/03/16 09:12:32;;;;;;;7.47;5.90;;;;;;;;;;4926560;28;20572;-14
2021/03/16 09:15:25;;;;;;;6.80;6.20;;;;;;;;;;4928919;28;20465;-14
2021/03/16 09:30:36;;;;;;;10.33;6.50;;;;;;;;;;5074366;27;20336;-9
2021/03/16 09:33:22;;;;;;;6.70;6.20;;;;;;;;;;5055073;28;20468;-11
2021/03/16 10:12:57;;;;;;;9.27;7.20;;;;;;;;;;5108792;27;20475;-13
2021/03/16 10:15:26;;;;;;;12.80;7.47;;;;;;;;;;5092829;28;20434;-13
2021/03/16 10:17:54;;;;;;;14.47;8.70;;;;;;;;;;5072874;28;20451;-12
2021/03/16 10:20:24;;;;;;;6.80;6.00;;;;;;;;;;5086167;28;20437;-12
2021/03/16 10:22:58;;;;;;;9.43;6.43;;;;;;;;;;5041180;28;20443;-13
2021/03/16 10:25:26;;;;;;;17.20;7.47;;;;;;;;;;5054982;28;20968;-11
2021/03/16 10:28:02;;;;;;;8.23;7.43;;;;;;;;;;5056821;28;20436;-10
2021/03/16 10:30:30;;;;;;;7.33;6.40;;;;;;;;;;5056772;28;20472;-11
2021/03/16 10:32:59;;;;;;;8.10;7.23;;;;;;;;;;5062549;28;20443;-12
2021/03/16 10:35:26;;;;;;;9.30;6.43;;;;;;;;;;5061518;28;20451;-10
2021/03/16 10:37:53;;;;;;;8.73;6.70;;;;;;;;;;5084276;28;20436;-11
2021/03/16 10:40:21;;;;;;;7.17;6.37;;;;;;;;;;5058701;28;20514;-11
2021/03/16 10:42:49;;;;;;;7.73;6.80;;;;;;;;;;5079253;28;20476;-11
2021/03/16 10:45:19;;;;;;;18.83;6.10;;;;;;;;;;5092029;28;20478;-11
2021/03/16 10:47:47;;;;;;;8.77;6.73;;;;;;;;;;5053313;28;20513;-12
2021/03/16 10:50:14;;;;;;;8.43;6.57;;;;;;;;;;5055338;28;20444;-12
2021/03/16 10:52:43;;;;;;;7.17;6.00;;;;;;;;;;5074786;28;20455;-12
2021/03/16 10:55:11;;;;;;;6.57;5.93;;;;;;;;;;5056998;28;20518;-11
2021/03/16 10:57:38;;;;;;;9.63;6.90;;;;;;;;;;5075399;28;20915;-12
2021/03/16 11:00:06;;;;;;;10.30;7.20;;;;;;;;;;5074878;28;20446;-11
2021/03/16 11:02:43;;;;;;;8.57;7.00;;;;;;;;;;5096653;28;20941;-12
2021/03/16 11:05:11;;;;;;;12.33;6.63;;;;;;;;;;5078671;28;20462;-12
2021/03/16 11:07:38;;;;;;;8.60;6.73;;;;;;;;;;5075150;28;20456;-12
2021/03/16 11:10:06;;;;;;;7.67;6.83;;;;;;;;;;5070096;28;20428;-11
2021/03/16 11:12:33;;;;;;;8.10;6.60;;;;;;;;;;5061557;28;20530;-12
2021/03/16 11:15:00;;;;;;;8.67;6.90;;;;;;;;;;5068545;28;20448;-12
2021/03/16 11:17:27;;;;;;;8.13;6.43;;;;;;;;;;5073022;28;20439;-12
2021/03/16 11:19:55;;;;;;;8.90;7.43;;;;;;;;;;5073474;28;20447;-13
2021/03/16 11:22:22;;;;;;;7.53;6.90;;;;;;;;;;5057737;28;20432;-13
2021/03/16 11:24:49;;;;;;;7.83;7.13;;;;;;;;;;5058790;28;21207;-13
2021/03/16 11:27:17;;;;;;;7.47;5.80;;;;;;;;;;5046280;28;20461;-13
2021/03/16 11:29:44;;;;;;;9.13;8.03;;;;;;;;;;5042271;28;20484;-12
2021/03/16 11:32:11;;;;;;;7.43;6.70;;;;;;;;;;5048334;28;21006;-12
2021/03/16 11:34:57;;;;;;;9.70;8.03;;;;;;;;;;5055287;28;20593;-13
2021/03/16 11:37:43;;;;;;;8.90;7.57;;;;;;;;;;5056238;28;20456;-12
2021/03/16 11:40:29;;;;;;;7.97;7.37;;;;;;;;;;5057330;28;20879;-12
2021/03/16 11:43:15;;;;;;;10.17;7.00;;;;;;;;;;5051741;28;20445;-13
2021/03/16 11:46:22;;;;;;;9.77;7.70;;;;;;;;;;5050202;28;20482;-13
2021/03/16 11:49:07;;;;;;;8.67;7.77;;;;;;;;;;5051319;28;20556;-12
2021/03/16 11:51:55;;;;;;;10.13;9.33;;;;;;;;;;5065514;28;20574;-12
2021/03/16 11:54:44;;;;;;;9.50;8.60;;;;;;;;;;5071739;28;20430;-13
2021/03/16 11:57:33;;;;;;;14.67;9.37;;;;;;;;;;5054211;28;20256;-10
2021/03/16 12:00:23;;;;;;;11.37;7.60;;;;;;;;;;5053330;28;20455;-12
2021/03/16 12:03:10;;;;;;;11.60;9.30;;;;;;;;;;5060521;28;20497;-12
2021/03/16 12:06:00;;;;;;;10.53;8.23;;;;;;;;;;5064852;28;20503;-12
2021/03/16 12:08:50;;;;;;;12.97;10.03;;;;;;;;;;5038789;28;20440;-13
2021/03/16 12:11:35;;;;;;;14.90;13.50;;;;;;;;;;5074160;28;20577;-11
2021/03/16 12:14:22;;;;;;;10.47;9.47;;;;;;;;;;5075671;28;20447;-11
2021/03/16 12:17:10;;;;;;;11.60;9.07;;;;;;;;;;5057403;28;20466;-12
2021/03/16 12:19:58;;;;;;;9.90;8.90;;;;;;;;;;5076640;28;20726;-12
2021/03/16 12:22:45;;;;;;;8.87;8.13;;;;;;;;;;5008219;28;20502;-12
2021/03/16 12:25:31;;;;;;;9.20;8.20;;;;;;;;;;5003554;28;20452;-12
2021/03/16 12:28:18;;;;;;;9.70;8.73;;;;;;;;;;5010687;28;21281;-12
2021/03/16 12:31:03;;;;;;;10.10;7.90;;;;;;;;;;5022613;28;20466;-11
2021/03/16 12:33:49;;;;;;;9.33;8.27;;;;;;;;;;5020416;28;20449;-13
2021/03/16 12:36:35;;;;;;;8.97;8.17;;;;;;;;;;5021153;28;20460;-12
2021/03/16 12:39:22;;;;;;;9.20;8.60;;;;;;;;;;5019767;28;20455;-11
2021/03/16 12:42:08;;;;;;;9.33;8.53;;;;;;;;;;5001501;28;20778;-12
2021/03/16 12:44:56;;;;;;;10.47;8.03;;;;;;;;;;4998975;28;20443;-12
2021/03/16 12:47:41;;;;;;;10.20;8.23;;;;;;;;;;4981614;28;20493;-13
2021/03/16 12:51:08;;;;;;;8.73;8.00;;;;;;;;;;4938168;28;20497;-12
2021/03/16 12:53:54;;;;;;;10.47;7.73;;;;;;;;;;4935146;28;20443;-13
2021/03/16 12:56:40;;;;;;;9.17;7.33;;;;;;;;;;4980365;28;20451;-12
2021/03/16 12:59:26;;;;;;;13.40;7.00;;;;;;;;;;5000083;28;20450;-13
2021/03/16 13:02:13;;;;;;;9.97;7.70;;;;;;;;;;4994301;28;20820;-14
2021/03/16 13:04:59;;;;;;;8.73;7.93;;;;;;;;;;5009206;28;20819;-13
2021/03/16 13:07:48;;;;;;;8.37;7.53;;;;;;;;;;4995682;28;21126;-12
2021/03/16 13:10:33;;;;;;;8.57;7.50;;;;;;;;;;5012239;28;20561;-13
2021/03/16 13:13:20;;;;;;;8.20;7.30;;;;;;;;;;5015139;28;20476;-13
2021/03/16 13:16:06;;;;;;;10.30;7.60;;;;;;;;;;5017015;28;20450;-13
2021/03/16 13:18:52;;;;;;;12.60;11.37;;;;;;;;;;5014295;28;20449;-13
2021/03/16 13:21:37;;;;;;;8.53;7.40;;;;;;;;;;5015108;28;21031;-13
2021/03/16 13:24:24;;;;;;;8.40;7.70;;;;;;;;;;5016590;28;20677;-12
2021/03/16 13:27:11;;;;;;;10.50;8.83;;;;;;;;;;5016275;28;21018;-13
2021/03/16 13:29:57;;;;;;;8.80;7.87;;;;;;;;;;5011512;28;20435;-12
2021/03/16 13:32:43;;;;;;;9.50;8.10;;;;;;;;;;4991598;28;20648;-11
2021/03/16 13:35:29;;;;;;;12.90;9.53;;;;;;;;;;4994725;28;20848;-11
2021/03/16 13:38:15;;;;;;;9.47;8.77;;;;;;;;;;4975732;28;20443;-12
2021/03/16 13:41:01;;;;;;;9.93;8.97;;;;;;;;;;4994968;28;20430;-12
2021/03/16 13:43:47;;;;;;;9.50;8.73;;;;;;;;;;4995566;28;20442;-12
2021/03/16 13:46:33;;;;;;;12.07;8.60;;;;;;;;;;4996915;28;20640;-12
2021/03/16 13:49:20;;;;;;;8.63;7.90;;;;;;;;;;4974152;28;20661;-11
2021/03/16 13:52:05;;;;;;;11.27;9.47;;;;;;;;;;4995145;28;20745;-11
2021/03/16 13:54:51;;;;;;;8.20;7.70;;;;;;;;;;4996003;28;20712;-11
2021/03/16 13:57:37;;;;;;;9.40;8.50;;;;;;;;;;4993527;28;20880;-10
2021/03/16 14:00:23;;;;;;;8.90;8.10;;;;;;;;;;5013169;28;20443;-12
2021/03/16 14:03:08;;;;;;;10.73;9.60;;;;;;;;;;5011097;28;20496;-12
2021/03/16 14:05:55;;;;;;;9.80;9.00;;;;;;;;;;4997719;28;20541;-11
2021/03/16 14:08:40;;;;;;;10.53;9.10;;;;;;;;;;4995542;28;20473;-11
2021/03/16 14:11:27;;;;;;;9.27;8.57;;;;;;;;;;4993756;28;20482;-11
2021/03/16 14:14:14;;;;;;;10.00;9.10;;;;;;;;;;5015342;28;20620;-13
2021/03/16 14:20:06;;;;;;;8.47;7.70;;;;;;;;;;5017313;28;20682;-13
2021/03/16 14:22:52;;;;;;;10.33;7.50;;;;;;;;;;5025837;28;20442;-12
2021/03/16 14:25:39;;;;;;;7.90;7.40;;;;;;;;;;5025105;28;20471;-12
2021/03/16 14:28:24;;;;;;;8.20;7.50;;;;;;;;;;5026207;28;20625;-13
2021/03/16 14:31:10;;;;;;;8.27;7.43;;;;;;;;;;5023384;28;20485;-12
2021/03/16 14:33:55;;;;;;;12.30;7.00;;;;;;;;;;5020410;28;20443;-12
2021/03/16 14:36:43;;;;;;;7.30;6.90;;;;;;;;;;5021301;28;20477;-12
2021/03/16 14:39:29;;;;;;;9.43;7.93;;;;;;;;;;5023815;28;20469;-13
2021/03/16 14:42:15;;;;;;;8.90;8.20;;;;;;;;;;5009558;28;21164;-12
2021/03/16 14:45:01;;;;;;;15.30;7.50;;;;;;;;;;5024579;28;20608;-13
2021/03/16 14:47:46;;;;;;;10.03;7.53;;;;;;;;;;5008988;28;20465;-12
2021/03/16 14:50:32;;;;;;;7.73;7.03;;;;;;;;;;5026309;28;20467;-12
2021/03/16 14:53:18;;;;;;;8.63;7.00;;;;;;;;;;5026610;28;20442;-13
2021/03/16 14:56:05;;;;;;;7.57;7.07;;;;;;;;;;5007690;28;20590;-12
2021/03/16 14:58:51;;;;;;;7.83;7.20;;;;;;;;;;5025440;28;20443;-12
2021/03/16 15:01:37;;;;;;;7.07;6.57;;;;;;;;;;5006489;28;20670;-13
2021/03/16 15:04:25;;;;;;;7.40;6.70;;;;;;;;;;5028264;28;20727;-12
2021/03/16 15:07:22;;;;;;;8.40;6.60;;;;;;;;;;5029153;28;20694;-12
2021/03/16 15:10:12;;;;;;;8.47;7.70;;;;;;;;;;5004561;28;21046;-13
2021/03/16 15:13:12;;;;;;;7.30;6.83;;;;;;;;;;4987592;28;20439;-12
2021/03/16 15:15:58;;;;;;;8.27;7.57;;;;;;;;;;5001041;28;20557;-13
2021/03/16 15:18:43;;;;;;;7.70;7.10;;;;;;;;;;4998728;28;20527;-12
2021/03/16 15:21:29;;;;;;;7.57;7.07;;;;;;;;;;4996251;28;20477;-12
2021/03/16 15:24:15;;;;;;;8.13;7.00;;;;;;;;;;5000079;28;20541;-12
2021/03/16 15:27:00;;;;;;;7.30;6.80;;;;;;;;;;4997878;28;20439;-12
2021/03/16 15:29:47;;;;;;;7.60;7.10;;;;;;;;;;5001092;28;20538;-12
2021/03/16 15:32:33;;;;;;;7.20;6.80;;;;;;;;;;5001970;28;20471;-12
2021/03/16 15:35:18;;;;;;;7.73;7.07;;;;;;;;;;4981995;28;20461;-11
2021/03/16 15:38:04;;;;;;;8.13;7.50;;;;;;;;;;5003937;28;20545;-12
2021/03/16 15:40:50;;;;;;;8.33;7.50;;;;;;;;;;4996839;28;20683;-12
2021/03/16 15:43:36;;;;;;;7.50;6.93;;;;;;;;;;5003400;28;20732;-10
2021/03/16 15:46:22;;;;;;;8.00;7.50;;;;;;;;;;4981644;28;20435;-11
2021/03/16 15:49:08;;;;;;;7.43;7.03;;;;;;;;;;5002695;28;20725;-11
2021/03/16 15:51:54;;;;;;;7.83;7.03;;;;;;;;;;5003937;28;20489;-12
2021/03/16 15:54:40;;;;;;;8.47;7.73;;;;;;;;;;5012544;28;20551;-11
2021/03/16 15:57:25;;;;;;;8.23;7.73;;;;;;;;;;4996978;28;20460;-11
2021/03/16 16:00:12;;;;;;;10.87;7.10;;;;;;;;;;5004408;28;20540;-11
2021/03/16 16:02:58;;;;;;;6.43;5.93;;;;;;;;;;5005918;28;20765;-12
2021/03/16 16:05:46;;;;;;;6.90;6.40;;;;;;;;;;5029615;28;20462;-12
2021/03/16 16:08:32;;;;;;;7.90;7.30;;;;;;;;;;5011801;28;20457;-14
2021/03/16 16:11:18;;;;;;;7.07;6.67;;;;;;;;;;5029669;28;20700;-13
2021/03/16 16:14:05;;;;;;;6.63;6.10;;;;;;;;;;5024495;28;20649;-13
2021/03/16 16:16:51;;;;;;;8.00;7.33;;;;;;;;;;5026427;28;20435;-13
2021/03/16 16:19:39;;;;;;;6.93;6.53;;;;;;;;;;5010894;28;20865;-11
2021/03/16 16:22:24;;;;;;;7.63;6.97;;;;;;;;;;4992442;28;20443;-13
2021/03/16 16:25:11;;;;;;;6.63;6.23;;;;;;;;;;5005536;28;20533;-13
2021/03/16 16:27:58;;;;;;;8.57;7.97;;;;;;;;;;4986181;28;20605;-14
2021/03/16 16:30:44;;;;;;;8.40;7.90;;;;;;;;;;5003790;28;20505;-14
2021/03/16 16:33:32;;;;;;;9.23;8.27;;;;;;;;;;5006148;28;20439;-12
2021/03/16 16:36:18;;;;;;;7.90;7.13;;;;;;;;;;5006737;28;20773;-12
2021/03/16 16:39:04;;;;;;;7.30;6.80;;;;;;;;;;5007281;28;20454;-13
2021/03/16 16:41:51;;;;;;;7.60;7.10;;;;;;;;;;5007617;28;20451;-12
2021/03/16 16:44:39;;;;;;;7.50;6.80;;;;;;;;;;5009796;28;20447;-13
2021/03/16 16:47:25;;;;;;;9.73;7.60;;;;;;;;;;4994022;28;20440;-11
2021/03/16 16:50:11;;;;;;;8.70;7.90;;;;;;;;;;5009889;28;20478;-13
2021/03/16 16:52:58;;;;;;;7.53;7.13;;;;;;;;;;5007590;28;20748;-12
2021/03/16 16:55:44;;;;;;;6.90;6.50;;;;;;;;;;5006265;28;20450;-12
2021/03/16 16:58:30;;;;;;;7.20;6.60;;;;;;;;;;5012421;28;20459;-12
2021/03/16 17:01:16;;;;;;;8.40;7.80;;;;;;;;;;5006937;28;20463;-12
2021/03/16 17:04:02;;;;;;;11.40;7.67;;;;;;;;;;5006956;28;20451;-12
2021/03/16 17:06:48;;;;;;;8.50;7.90;;;;;;;;;;4988795;28;20466;-12